createdAt,value
2018-07-10T00:01:04.763Z,17.50
2018-07-10T00:03:44.394Z,17.40
2018-07-10T00:07:22.132Z,17.30
2018-07-10T00:10:02.107Z,17.50
2018-07-10T00:12:30.704Z,17.40
2018-07-10T00:14:59.205Z,17.20
2018-07-10T00:17:27.682Z,17.20
2018-07-10T00:19:56.191Z,17.20
2018-07-10T00:22:24.692Z,17.10
2018-07-10T00:24:53.237Z,17.10
2018-07-10T00:27:21.751Z,17.10
2018-07-10T00:29:50.199Z,17.10
2018-07-10T00:32:18.815Z,17.10
2018-07-10T00:34:47.369Z,17.10
2018-07-10T00:37:15.936Z,17.10
2018-07-10T00:39:44.510Z,17.10
2018-07-10T00:42:13.052Z,17.20
2018-07-10T00:44:41.602Z,17.30
2018-07-10T00:47:10.155Z,17.40
2018-07-10T00:49:38.734Z,17.30
2018-07-10T00:52:07.259Z,17.40
2018-07-10T00:54:35.787Z,17.20
2018-07-10T00:57:04.326Z,17.40
2018-07-10T00:59:32.840Z,17.30
2018-07-10T01:02:01.365Z,17.30
2018-07-10T01:04:29.878Z,17.20
2018-07-10T01:06:58.378Z,17.20
2018-07-10T01:09:26.895Z,17.10
2018-07-10T01:11:55.391Z,17.10
2018-07-10T01:14:23.925Z,17.00
2018-07-10T01:16:52.432Z,17.00
2018-07-10T01:19:20.952Z,16.90
2018-07-10T01:21:49.514Z,16.90
2018-07-10T01:24:18.459Z,16.90
2018-07-10T01:26:48.802Z,16.80
2018-07-10T01:29:22.798Z,16.90
2018-07-10T01:31:54.488Z,17.00
2018-07-10T01:34:23.990Z,17.00
2018-07-10T01:36:53.879Z,17.00
2018-07-10T01:39:22.384Z,17.10
2018-07-10T01:41:50.913Z,16.90
2018-07-10T01:44:19.443Z,16.80
2018-07-10T01:46:48.006Z,16.80
2018-07-10T01:49:16.566Z,16.70
2018-07-10T01:51:45.081Z,16.70
2018-07-10T01:54:13.606Z,16.70
2018-07-10T01:56:42.227Z,16.60
2018-07-10T01:59:11.074Z,16.70
2018-07-10T02:01:39.748Z,16.70
2018-07-10T02:04:08.959Z,16.70
2018-07-10T02:06:38.237Z,16.60
2018-07-10T02:09:06.784Z,16.50
2018-07-10T02:11:35.263Z,16.60
2018-07-10T02:14:03.904Z,16.40
2018-07-10T02:16:32.442Z,16.40
2018-07-10T02:19:01.025Z,16.20
2018-07-10T02:21:29.831Z,16.10
2018-07-10T02:23:58.415Z,16.20
2018-07-10T02:26:28.203Z,16.20
2018-07-10T02:28:57.421Z,16.10
2018-07-10T02:31:25.956Z,16.00
2018-07-10T02:33:54.705Z,16.00
2018-07-10T02:36:24.218Z,16.00
2018-07-10T02:38:55.651Z,16.00
2018-07-10T02:41:24.660Z,16.00
2018-07-10T02:43:56.233Z,15.90
2018-07-10T02:46:25.675Z,15.90
2018-07-10T02:48:56.111Z,16.00
2018-07-10T02:51:24.706Z,16.00
2018-07-10T02:53:53.248Z,16.00
2018-07-10T02:56:22.656Z,15.90
2018-07-10T02:58:51.695Z,16.00
2018-07-10T03:01:20.510Z,15.90
2018-07-10T03:03:49.295Z,15.90
2018-07-10T03:08:46.983Z,15.90
2018-07-10T03:11:15.714Z,16.00
2018-07-10T03:13:44.259Z,16.10
2018-07-10T03:16:13.335Z,16.00
2018-07-10T03:18:41.931Z,16.00
2018-07-10T03:21:10.446Z,16.20
2018-07-10T03:23:39.069Z,16.40
2018-07-10T03:26:07.619Z,16.30
2018-07-10T03:28:36.164Z,16.20
2018-07-10T03:31:04.718Z,16.30
2018-07-10T03:33:33.290Z,16.20
2018-07-10T03:36:01.841Z,16.20
2018-07-10T03:38:30.428Z,16.20
2018-07-10T03:40:58.970Z,16.10
2018-07-10T03:43:28.068Z,16.10
2018-07-10T03:45:57.103Z,16.20
2018-07-10T03:48:26.297Z,16.30
2018-07-10T03:50:55.294Z,16.20
2018-07-10T03:53:24.169Z,16.30
2018-07-10T03:55:52.744Z,16.30
2018-07-10T03:58:21.334Z,16.20
2018-07-10T04:00:50.060Z,16.30
2018-07-10T04:03:21.609Z,16.30
2018-07-10T04:05:51.010Z,16.20
2018-07-10T04:08:19.539Z,16.30
2018-07-10T04:10:48.092Z,16.40
2018-07-10T04:13:19.699Z,16.40
2018-07-10T04:18:25.571Z,16.40
2018-07-10T04:21:07.299Z,16.50
2018-07-10T04:23:38.638Z,16.40
2018-07-10T04:26:25.480Z,16.50
2018-07-10T04:29:16.234Z,16.50
2018-07-10T04:31:58.518Z,16.40
2018-07-10T04:34:29.567Z,16.40
2018-07-10T04:37:08.417Z,16.40
2018-07-10T04:39:38.634Z,16.30
2018-07-10T04:42:22.059Z,16.40
2018-07-10T04:44:56.595Z,16.60
2018-07-10T04:47:31.862Z,16.70
2018-07-10T04:50:07.187Z,16.70
2018-07-10T04:52:35.756Z,16.90
2018-07-10T04:55:09.548Z,16.90
2018-07-10T04:57:49.756Z,17.10
2018-07-10T05:00:18.314Z,17.00
2018-07-10T05:02:47.223Z,16.90
2018-07-10T05:05:15.852Z,16.90
2018-07-10T05:07:44.629Z,17.10
2018-07-10T05:10:13.182Z,17.20
2018-07-10T05:12:44.331Z,17.30
2018-07-10T05:15:13.246Z,17.30
2018-07-10T05:17:42.938Z,17.50
2018-07-10T05:20:12.227Z,17.60
2018-07-10T05:22:41.368Z,17.70
2018-07-10T05:25:09.946Z,17.80
2018-07-10T05:27:38.518Z,17.90
2018-07-10T05:30:07.063Z,17.80
2018-07-10T05:32:35.613Z,17.80
2018-07-10T05:35:04.435Z,17.80
2018-07-10T05:37:37.438Z,17.90
2018-07-10T05:40:10.303Z,18.00
2018-07-10T05:42:47.879Z,17.90
2018-07-10T05:45:20.314Z,18.10
2018-07-10T05:47:57.691Z,18.30
2018-07-10T05:50:30.171Z,18.30
2018-07-10T05:52:58.852Z,18.30
2018-07-10T05:55:29.734Z,18.50
2018-07-10T05:57:59.561Z,18.30
2018-07-10T06:00:29.508Z,18.40
2018-07-10T06:02:58.654Z,18.20
2018-07-10T06:05:28.104Z,18.30
2018-07-10T06:07:57.842Z,18.30
2018-07-10T06:10:26.395Z,18.30
2018-07-10T06:12:58.280Z,18.20
2018-07-10T06:15:27.648Z,18.50
2018-07-10T06:17:56.292Z,18.60
2018-07-10T06:20:25.880Z,18.70
2018-07-10T06:22:56.488Z,18.80
2018-07-10T06:25:25.681Z,18.90
2018-07-10T06:28:14.302Z,18.90
2018-07-10T06:30:42.900Z,19.00
2018-07-10T06:33:21.038Z,19.10
2018-07-10T06:35:59.330Z,19.10
2018-07-10T06:38:27.877Z,18.90
2018-07-10T06:40:56.508Z,19.00
2018-07-10T06:43:36.729Z,19.00
2018-07-10T06:46:05.813Z,19.00
2018-07-10T06:48:41.537Z,19.00
2018-07-10T06:51:14.906Z,18.90
2018-07-10T06:53:43.943Z,18.80
2018-07-10T06:56:12.486Z,18.80
2018-07-10T07:01:09.315Z,18.80
2018-07-10T07:03:38.021Z,18.80
2018-07-10T07:06:06.544Z,18.80
2018-07-10T07:08:35.135Z,18.80
2018-07-10T07:11:03.661Z,18.90
2018-07-10T07:13:32.229Z,18.80
2018-07-10T07:16:00.748Z,18.80
2018-07-10T07:18:29.275Z,18.70
2018-07-10T07:20:57.916Z,18.60
2018-07-10T07:23:26.410Z,18.70
2018-07-10T07:25:54.925Z,18.90
2018-07-10T07:28:23.371Z,18.90
2018-07-10T07:33:20.197Z,18.80
2018-07-10T07:35:48.711Z,18.70
2018-07-10T07:38:17.691Z,18.80
2018-07-10T07:40:46.251Z,18.70
2018-07-10T07:43:14.874Z,18.60
2018-07-10T07:45:43.400Z,18.60
2018-07-10T07:48:12.606Z,18.50
2018-07-10T07:50:41.230Z,18.50
2018-07-10T07:53:09.765Z,18.40
2018-07-10T07:55:38.368Z,18.40
2018-07-10T07:58:07.710Z,18.70
2018-07-10T08:00:36.295Z,18.90
2018-07-10T08:03:04.829Z,19.00
2018-07-10T08:05:33.412Z,19.00
2018-07-10T08:08:01.971Z,19.20
2018-07-10T08:10:30.562Z,19.30
2018-07-10T08:12:59.131Z,19.40
2018-07-10T08:17:56.440Z,19.90
2018-07-10T08:20:24.952Z,20.60
2018-07-10T08:22:53.603Z,21.40
2018-07-10T08:25:24.327Z,22.60
2018-07-10T08:27:52.882Z,22.80
2018-07-10T08:30:21.419Z,23.20
2018-07-10T08:32:51.221Z,23.40
2018-07-10T08:35:20.296Z,24.00
2018-07-10T08:37:48.852Z,24.10
2018-07-10T08:40:17.394Z,24.30
2018-07-10T08:42:45.964Z,23.80
2018-07-10T08:45:14.529Z,23.10
2018-07-10T08:47:43.099Z,22.80
2018-07-10T08:50:12.118Z,22.80
2018-07-10T08:52:40.927Z,22.80
2018-07-10T08:55:09.447Z,23.10
2018-07-10T08:57:38.008Z,23.60
2018-07-10T09:00:06.739Z,25.00
2018-07-10T09:02:35.367Z,25.10
2018-07-10T09:05:03.931Z,24.80
2018-07-10T09:07:32.464Z,24.00
2018-07-10T09:10:01.164Z,23.60
2018-07-10T09:12:29.720Z,23.30
2018-07-10T09:14:58.349Z,23.20
2018-07-10T09:17:28.585Z,23.20
2018-07-10T09:19:59.121Z,23.90
2018-07-10T09:22:27.700Z,24.70
2018-07-10T09:24:57.507Z,26.20
2018-07-10T09:27:26.188Z,26.90
2018-07-10T09:29:54.862Z,26.10
2018-07-10T09:32:28.640Z,25.20
2018-07-10T09:34:58.633Z,23.80
2018-07-10T09:37:35.086Z,22.60
2018-07-10T09:40:09.328Z,22.40
2018-07-10T09:42:48.242Z,22.40
2018-07-10T09:45:16.812Z,22.30
2018-07-10T09:47:45.388Z,22.20
2018-07-10T09:50:14.100Z,21.90
2018-07-10T09:52:42.664Z,22.40
2018-07-10T09:55:11.258Z,24.60
2018-07-10T09:57:40.580Z,26.90
2018-07-10T10:00:09.102Z,27.00
2018-07-10T10:02:37.680Z,26.30
2018-07-10T10:05:07.319Z,25.00
2018-07-10T10:07:36.038Z,24.00
2018-07-10T10:10:05.272Z,22.80
2018-07-10T10:12:34.390Z,22.40
2018-07-10T10:15:02.979Z,21.90
2018-07-10T10:17:31.940Z,21.40
2018-07-10T10:20:00.609Z,20.90
2018-07-10T10:22:31.194Z,20.50
2018-07-10T10:25:00.676Z,20.20
2018-07-10T10:27:30.342Z,20.00
2018-07-10T10:29:59.795Z,20.60
2018-07-10T10:32:28.486Z,22.40
2018-07-10T10:34:57.587Z,22.80
2018-07-10T10:37:26.230Z,22.20
2018-07-10T10:39:56.442Z,21.60
2018-07-10T10:42:26.460Z,21.10
2018-07-10T10:44:57.374Z,20.40
2018-07-10T10:47:26.113Z,19.90
2018-07-10T10:49:55.610Z,19.30
2018-07-10T10:52:25.707Z,18.80
2018-07-10T10:54:54.337Z,18.60
2018-07-10T10:57:23.670Z,18.20
2018-07-10T10:59:52.839Z,17.90
2018-07-10T11:02:22.136Z,17.70
2018-07-10T11:04:52.414Z,17.60
2018-07-10T11:07:21.377Z,17.50
2018-07-10T11:09:50.176Z,17.50
2018-07-10T11:12:19.019Z,17.50
2018-07-10T11:14:47.699Z,17.70
2018-07-10T11:17:34.047Z,17.70
2018-07-10T11:21:13.737Z,17.70
2018-07-10T11:23:54.911Z,17.50
2018-07-10T11:26:44.396Z,17.30
2018-07-10T11:29:13.665Z,17.10
2018-07-10T11:31:42.286Z,17.10
2018-07-10T11:34:11.557Z,17.00
2018-07-10T11:36:40.146Z,16.90
2018-07-10T11:39:13.207Z,16.90
2018-07-10T11:41:50.836Z,17.00
2018-07-10T11:44:19.597Z,17.40
2018-07-10T11:46:48.498Z,17.60
2018-07-10T11:49:17.295Z,18.30
2018-07-10T11:51:45.938Z,18.80
2018-07-10T11:54:14.596Z,19.20
2018-07-10T11:56:43.173Z,20.00
2018-07-10T11:59:11.870Z,20.60
2018-07-10T12:01:40.492Z,20.80
2018-07-10T12:04:09.247Z,21.10
2018-07-10T12:06:49.904Z,21.20
2018-07-10T12:09:18.599Z,21.20
2018-07-10T12:11:47.180Z,21.40
2018-07-10T12:14:15.800Z,21.10
2018-07-10T12:16:44.558Z,21.40
2018-07-10T12:19:13.166Z,22.00
2018-07-10T12:21:41.751Z,22.20
2018-07-10T12:24:10.336Z,22.10
2018-07-10T12:26:38.919Z,21.60
2018-07-10T12:29:07.443Z,21.70
2018-07-10T12:31:36.004Z,21.90
2018-07-10T12:34:04.530Z,21.90
2018-07-10T12:36:33.136Z,21.90
2018-07-10T12:39:01.812Z,22.00
2018-07-10T12:41:30.413Z,22.30
2018-07-10T12:43:58.941Z,22.00
2018-07-10T12:46:27.838Z,22.20
2018-07-10T12:48:56.411Z,22.00
2018-07-10T12:51:24.995Z,21.80
2018-07-10T12:53:53.659Z,21.90
2018-07-10T12:56:22.210Z,22.20
2018-07-10T12:58:50.851Z,22.60
2018-07-10T13:01:19.390Z,22.90
2018-07-10T13:03:48.555Z,22.70
2018-07-10T13:08:45.690Z,23.30
2018-07-10T13:11:14.303Z,23.20
2018-07-10T13:13:43.160Z,23.10
2018-07-10T13:16:11.840Z,23.20
2018-07-10T13:18:41.643Z,23.00
2018-07-10T13:21:10.242Z,23.30
2018-07-10T13:23:38.913Z,23.40
2018-07-10T13:26:07.493Z,22.90
2018-07-10T13:28:36.455Z,22.90
2018-07-10T13:31:05.101Z,22.70
2018-07-10T13:33:34.709Z,22.80
2018-07-10T13:36:03.379Z,23.00
2018-07-10T13:38:31.927Z,23.10
2018-07-10T13:41:02.236Z,23.40
2018-07-10T13:43:30.777Z,23.60
2018-07-10T13:45:59.452Z,23.60
2018-07-10T13:48:28.024Z,23.40
2018-07-10T13:50:56.637Z,23.30
2018-07-10T13:53:25.316Z,23.20
2018-07-10T13:55:53.938Z,22.90
2018-07-10T13:58:32.157Z,23.00
2018-07-10T14:01:10.993Z,22.90
2018-07-10T14:03:39.650Z,22.70
2018-07-10T14:06:08.696Z,22.10
2018-07-10T14:08:37.459Z,22.20
2018-07-10T14:11:06.003Z,22.60
2018-07-10T14:13:34.726Z,22.90
2018-07-10T14:16:03.729Z,22.90
2018-07-10T14:18:32.741Z,22.80
2018-07-10T14:21:05.259Z,22.90
2018-07-10T14:23:34.110Z,22.90
2018-07-10T14:26:02.657Z,23.00
2018-07-10T14:28:31.316Z,23.30
2018-07-10T14:30:59.945Z,23.60
2018-07-10T14:33:28.765Z,23.20
2018-07-10T14:35:57.306Z,23.30
2018-07-10T14:38:27.045Z,23.20
2018-07-10T14:40:56.483Z,22.90
2018-07-10T14:43:34.061Z,22.60
2018-07-10T14:46:10.769Z,22.20
2018-07-10T14:48:44.870Z,22.40
2018-07-10T14:51:15.378Z,22.60
2018-07-10T14:53:44.003Z,22.80
2018-07-10T14:56:12.591Z,22.80
2018-07-10T14:58:41.611Z,22.90
2018-07-10T15:01:10.287Z,22.80
2018-07-10T15:03:38.792Z,22.70
2018-07-10T15:06:07.519Z,22.70
2018-07-10T15:08:36.275Z,22.60
2018-07-10T15:11:04.831Z,22.60
2018-07-10T15:13:44.848Z,22.70
2018-07-10T15:16:13.433Z,22.60
2018-07-10T15:18:44.738Z,22.40
2018-07-10T15:21:13.291Z,22.10
2018-07-10T15:23:42.420Z,21.90
2018-07-10T15:26:10.961Z,22.00
2018-07-10T15:28:39.960Z,22.30
2018-07-10T15:31:08.776Z,22.30
2018-07-10T15:33:38.133Z,22.30
2018-07-10T15:36:06.879Z,22.30
2018-07-10T15:38:36.192Z,22.30
2018-07-10T15:41:04.997Z,22.10
2018-07-10T15:43:33.580Z,22.10
2018-07-10T15:46:02.104Z,21.90
2018-07-10T15:48:30.644Z,21.80
2018-07-10T15:50:59.218Z,21.70
2018-07-10T15:53:27.881Z,21.70
2018-07-10T15:55:56.475Z,21.60
2018-07-10T15:58:25.024Z,21.50
2018-07-10T16:00:53.614Z,21.50
2018-07-10T16:03:22.177Z,21.50
2018-07-10T16:05:50.762Z,21.50
2018-07-10T16:08:20.355Z,21.20
2018-07-10T16:10:54.904Z,21.30
2018-07-10T16:13:24.851Z,21.30
2018-07-10T16:15:56.107Z,21.20
2018-07-10T16:18:26.272Z,21.10
2018-07-10T16:20:56.304Z,21.20
2018-07-10T16:23:24.906Z,21.10
2018-07-10T16:26:00.201Z,21.10
2018-07-10T16:28:28.746Z,21.20
2018-07-10T16:30:57.474Z,21.10
2018-07-10T16:33:30.035Z,21.10
2018-07-10T16:35:59.216Z,20.90
2018-07-10T16:38:28.336Z,20.70
2018-07-10T16:41:02.122Z,20.70
2018-07-10T16:43:30.971Z,20.70
2018-07-10T16:46:01.134Z,20.70
2018-07-10T16:53:38.079Z,20.80
2018-07-10T16:56:06.719Z,20.70
2018-07-10T16:58:38.920Z,20.60
2018-07-10T17:03:37.169Z,20.40
2018-07-10T17:06:05.866Z,20.40
2018-07-10T17:08:34.425Z,20.30
2018-07-10T17:11:03.137Z,20.30
2018-07-10T17:13:31.755Z,20.30
2018-07-10T17:16:00.481Z,20.40
2018-07-10T17:18:29.113Z,20.30
2018-07-10T17:20:57.842Z,20.20
2018-07-10T17:23:26.558Z,20.20
2018-07-10T17:25:55.422Z,20.20
2018-07-10T17:28:23.995Z,20.20
2018-07-10T17:30:52.639Z,20.10
2018-07-10T17:33:21.352Z,19.90
2018-07-10T17:35:49.981Z,19.80
2018-07-10T17:38:18.581Z,19.90
2018-07-10T17:40:47.199Z,19.90
2018-07-10T17:43:16.759Z,19.80
2018-07-10T17:45:45.300Z,19.60
2018-07-10T17:48:13.853Z,19.50
2018-07-10T17:50:42.546Z,19.50
2018-07-10T17:53:11.278Z,19.50
2018-07-10T17:55:39.802Z,19.50
2018-07-10T17:58:08.725Z,19.40
2018-07-10T18:00:37.260Z,19.40
2018-07-10T18:03:05.909Z,19.30
2018-07-10T18:05:34.532Z,19.30
2018-07-10T18:08:03.225Z,19.30
2018-07-10T18:10:31.842Z,19.20
2018-07-10T18:13:00.426Z,19.20
2018-07-10T18:15:29.269Z,19.10
2018-07-10T18:17:58.709Z,19.00
2018-07-10T18:20:27.557Z,19.00
2018-07-10T18:22:56.949Z,18.90
2018-07-10T18:25:25.505Z,18.70
2018-07-10T18:27:54.004Z,18.70
2018-07-10T18:30:22.561Z,18.60
2018-07-10T18:32:51.335Z,18.50
2018-07-10T18:35:19.904Z,18.40
2018-07-10T18:37:48.486Z,18.40
2018-07-10T18:40:17.035Z,18.40
2018-07-10T18:42:45.679Z,18.30
2018-07-10T18:45:14.319Z,18.20
2018-07-10T18:47:42.946Z,18.20
2018-07-10T18:50:11.557Z,18.10
2018-07-10T18:52:40.140Z,18.00
2018-07-10T18:55:08.788Z,18.00
2018-07-10T18:58:19.763Z,18.00
2018-07-10T19:00:54.796Z,17.90
2018-07-10T19:03:23.464Z,17.90
2018-07-10T19:05:55.714Z,17.80
2018-07-10T19:08:24.363Z,17.70
2018-07-10T19:10:53.597Z,17.60
2018-07-10T19:13:22.428Z,17.60
2018-07-10T19:15:52.400Z,17.60
2018-07-10T19:18:21.068Z,17.50
2018-07-10T19:20:54.649Z,17.40
2018-07-10T19:23:31.685Z,17.20
2018-07-10T19:26:00.351Z,17.20
2018-07-10T19:28:29.023Z,17.20
2018-07-10T19:31:01.047Z,17.10
2018-07-10T19:33:30.039Z,17.10
2018-07-10T19:35:58.777Z,17.10
2018-07-10T19:38:27.389Z,16.90
2018-07-10T19:40:56.112Z,16.90
2018-07-10T19:43:25.120Z,16.80
2018-07-10T19:45:54.319Z,16.70
2018-07-10T19:48:23.884Z,16.70
2018-07-10T19:50:52.502Z,16.60
2018-07-10T19:53:21.190Z,16.60
2018-07-10T19:55:49.833Z,16.50
2018-07-10T20:02:02.216Z,16.20
2018-07-10T20:05:07.751Z,16.10
2018-07-10T20:07:42.463Z,16.00
2018-07-10T20:10:14.555Z,15.90
2018-07-10T20:12:54.342Z,15.80
2018-07-10T20:15:52.190Z,15.70
2018-07-10T20:18:32.016Z,15.60
2018-07-10T20:21:08.995Z,15.60
2018-07-10T20:23:48.711Z,15.50
2018-07-10T20:26:24.263Z,15.50
2018-07-10T20:28:58.421Z,15.40
2018-07-10T20:32:01.774Z,15.30
2018-07-10T20:34:43.406Z,15.20
2018-07-10T20:37:21.331Z,15.20
2018-07-10T20:39:50.048Z,15.20
2018-07-10T20:42:19.300Z,15.10
2018-07-10T20:44:59.840Z,15.10
2018-07-10T20:47:34.382Z,15.00
2018-07-10T20:50:05.633Z,14.90
2018-07-10T20:53:02.272Z,14.80
2018-07-10T20:55:40.009Z,14.70
2018-07-10T20:58:12.632Z,14.70
2018-07-10T21:00:49.363Z,14.70
2018-07-10T21:03:40.631Z,14.60
2018-07-10T21:06:18.090Z,14.60
2018-07-10T21:09:09.791Z,14.60
2018-07-10T21:11:46.870Z,14.60
2018-07-10T21:14:20.312Z,14.60
2018-07-10T21:17:03.165Z,14.50
2018-07-10T21:20:43.435Z,14.50
2018-07-10T21:23:21.484Z,14.50
2018-07-10T21:25:58.517Z,14.50
2018-07-10T21:28:51.770Z,14.50
2018-07-10T21:32:30.125Z,14.40
2018-07-10T21:35:02.163Z,14.30
2018-07-10T21:38:38.255Z,14.20
2018-07-10T21:41:14.381Z,14.30
2018-07-10T21:43:54.021Z,14.20
2018-07-10T21:46:33.677Z,14.10
2018-07-10T21:50:13.259Z,13.90
2018-07-10T21:52:42.104Z,13.90
2018-07-10T21:55:10.847Z,13.90
2018-07-10T21:57:41.749Z,13.80
2018-07-10T22:00:10.250Z,13.90
2018-07-10T22:02:38.827Z,13.70
2018-07-10T22:05:07.474Z,13.70
2018-07-10T22:07:36.049Z,13.60
2018-07-10T22:10:06.133Z,13.50
2018-07-10T22:12:47.359Z,13.50
2018-07-10T22:15:16.176Z,13.40
2018-07-10T22:17:44.756Z,13.30
2018-07-10T22:20:13.329Z,13.30
2018-07-10T22:22:41.834Z,13.30
2018-07-10T22:25:10.400Z,13.30
2018-07-10T22:27:41.859Z,13.10
2018-07-10T22:30:19.334Z,13.10
2018-07-10T22:32:53.245Z,13.10
2018-07-10T22:35:21.782Z,13.10
2018-07-10T22:37:50.345Z,13.10
2018-07-10T22:40:19.120Z,13.10
2018-07-10T22:42:47.955Z,13.20
2018-07-10T22:45:18.157Z,13.30
2018-07-10T22:47:47.031Z,13.30
2018-07-10T22:50:20.806Z,13.20
2018-07-10T22:52:56.164Z,13.00
2018-07-10T22:55:28.912Z,13.10
2018-07-10T22:58:04.435Z,13.10
2018-07-10T23:00:35.171Z,13.00
2018-07-10T23:03:21.725Z,12.90
2018-07-10T23:05:51.299Z,12.80
2018-07-10T23:08:27.732Z,12.90
2018-07-10T23:10:56.702Z,13.00
2018-07-10T23:13:25.295Z,13.10
2018-07-10T23:15:53.818Z,13.20
2018-07-10T23:18:22.355Z,13.20
2018-07-10T23:20:50.911Z,13.30
2018-07-10T23:25:48.528Z,13.50
2018-07-10T23:28:17.097Z,13.50
2018-07-10T23:30:45.631Z,13.50
2018-07-10T23:33:17.229Z,13.40
2018-07-10T23:35:50.065Z,13.30
2018-07-10T23:38:39.755Z,13.20
2018-07-10T23:41:13.186Z,13.10
2018-07-10T23:46:24.184Z,13.00
2018-07-10T23:48:54.638Z,13.00
2018-07-10T23:51:23.199Z,13.00
2018-07-10T23:53:53.132Z,13.00
2018-07-10T23:56:22.099Z,13.00
2018-07-10T23:58:50.965Z,13.00
